Time;durP1;ratioP1;P1;durP2;ratioP2;P2;SDS_P1;SDS_P2;PMS_P1;PMS_P2;Temp;Humidity;BMP_temperature;BMP_pressure;BME280_temperature;BME280_humidity;BME280_pressure;Samples;Min_cycle;Max_cycle;Signal;HPM_P1;HPM_P2
2023/03/28 00:01:52;;;;;;;17.55;2.53;;;;;;;;;;5012380;28;20049;-80
2023/03/28 00:04:21;;;;;;;25.58;2.50;;;;;;;;;;5013397;28;20049;-80
2023/03/28 00:06:52;;;;;;;14.68;2.20;;;;;;;;;;4996485;28;20142;-80
2023/03/28 00:09:18;;;;;;;23.67;4.68;;;;;;;;;;5019673;28;20084;-80
2023/03/28 00:11:45;;;;;;;17.83;2.70;;;;;;;;;;5017491;28;20057;-80
2023/03/28 00:14:13;;;;;;;7.85;2.17;;;;;;;;;;5014310;28;20564;-80
2023/03/28 00:16:40;;;;;;;18.63;2.20;;;;;;;;;;5013175;28;20106;-80
2023/03/28 00:19:07;;;;;;;25.95;3.75;;;;;;;;;;5015566;28;20049;-79
2023/03/28 00:21:35;;;;;;;19.33;2.72;;;;;;;;;;5005122;28;20103;-80
2023/03/28 00:24:02;;;;;;;16.92;2.15;;;;;;;;;;5017139;28;20045;-79
2023/03/28 00:26:30;;;;;;;19.10;2.78;;;;;;;;;;5017135;28;20041;-80
2023/03/28 00:28:56;;;;;;;13.85;1.95;;;;;;;;;;5002491;28;20048;-79
2023/03/28 00:31:23;;;;;;;20.13;2.67;;;;;;;;;;5020170;28;20045;-80
2023/03/28 00:33:49;;;;;;;15.45;1.90;;;;;;;;;;5016603;28;20544;-79
2023/03/28 00:36:17;;;;;;;13.65;2.28;;;;;;;;;;5004685;28;20516;-80
2023/03/28 00:38:44;;;;;;;14.70;2.55;;;;;;;;;;5016838;28;20199;-80
2023/03/28 00:41:10;;;;;;;14.15;2.42;;;;;;;;;;5018343;28;20067;-80
2023/03/28 00:43:36;;;;;;;22.65;3.35;;;;;;;;;;5021307;28;20049;-80
2023/03/28 00:46:03;;;;;;;17.60;2.20;;;;;;;;;;5004352;28;20048;-80
2023/03/28 00:48:29;;;;;;;16.27;1.92;;;;;;;;;;5014847;28;20057;-79
2023/03/28 00:51:04;;;;;;;21.17;2.33;;;;;;;;;;5031010;28;20081;-78
2023/03/28 00:53:32;;;;;;;14.55;2.15;;;;;;;;;;5016455;28;20496;-79
2023/03/28 00:56:01;;;;;;;14.00;2.08;;;;;;;;;;5020634;28;20078;-80
2023/03/28 00:58:29;;;;;;;11.38;2.22;;;;;;;;;;5017031;28;20052;-79
2023/03/28 01:00:57;;;;;;;18.85;2.70;;;;;;;;;;5014844;28;20041;-80
2023/03/28 01:03:26;;;;;;;17.73;2.60;;;;;;;;;;5001922;28;20497;-79
2023/03/28 01:05:52;;;;;;;17.73;2.33;;;;;;;;;;5015947;28;20215;-79
2023/03/28 01:08:26;;;;;;;20.95;2.58;;;;;;;;;;5017386;28;20196;-80
2023/03/28 01:10:52;;;;;;;15.45;2.80;;;;;;;;;;5014995;28;20091;-80
2023/03/28 01:13:19;;;;;;;21.30;2.60;;;;;;;;;;5018212;28;20053;-80
2023/03/28 01:15:48;;;;;;;23.25;2.80;;;;;;;;;;5015411;28;20164;-79
2023/03/28 01:18:15;;;;;;;16.02;3.15;;;;;;;;;;5015355;28;20076;-79
2023/03/28 01:21:38;;;;;;;13.13;1.90;;;4.00;99.90;;;;;;5020408;28;20401;-80
2023/03/28 01:24:06;;;;;;;15.43;2.35;;;;;;;;;;4994701;28;20042;-78
2023/03/28 01:26:37;;;;;;;20.52;4.15;;;;;;;;;;4996193;28;20042;-79
2023/03/28 01:29:26;;;;;;;16.67;2.38;;;;;;;;;;5000953;28;20132;-81
2023/03/28 01:32:02;;;;;;;15.63;2.38;;;;;;;;;;5017859;28;20044;-78
2023/03/28 01:34:47;;;;;;;13.10;2.13;;;;;;;;;;5018448;28;20402;-79
2023/03/28 01:37:13;;;;;;;15.82;2.13;;;;;;;;;;5019590;28;20335;-79
2023/03/28 01:39:47;;;;;;;9.55;2.17;;;;;;;;;;5017717;28;20049;-79
2023/03/28 01:42:24;;;;;;;15.40;2.15;;;;;;;;;;5018685;28;20359;-79
2023/03/28 01:44:58;;;;;;;16.23;3.05;;;;;;;;;;5020273;28;20132;-80
2023/03/28 01:48:00;;;;;;;17.90;2.60;;;;;;;;;;5018960;28;20098;-79
2023/03/28 01:50:31;;;;;;;13.35;2.20;;;;;;;;;;4976352;28;20214;-79
2023/03/28 01:53:10;;;;;;;24.73;3.05;;;;;;;;;;5004709;28;20058;-79
2023/03/28 01:55:38;;;;;;;16.85;2.97;;;;;;;;;;5011407;28;20191;-80
2023/03/28 01:58:20;;;;;;;13.50;1.92;;;;;;;;;;5010950;28;20195;-79
2023/03/28 02:00:53;;;;;;;21.33;3.13;;;;;;;;;;4999302;28;20071;-80
2023/03/28 02:03:31;;;;;;;22.90;2.13;;;;;;;;;;5011997;28;20050;-80
2023/03/28 02:05:58;;;;;;;15.93;2.70;;;;;;;;;;5011244;28;20045;-79
2023/03/28 02:08:27;;;;;;;18.67;2.75;;;;;;;;;;5011293;28;20704;-80
2023/03/28 02:10:55;;;;;;;17.90;2.75;;;;;;;;;;5012390;28;20134;-80
2023/03/28 02:13:24;;;;;;;13.95;2.22;;;;;;;;;;5010831;28;20049;-80
2023/03/28 02:15:53;;;;;;;16.02;2.53;;;;;;;;;;5015326;28;20049;-80
2023/03/28 02:18:22;;;;;;;20.65;2.78;;;;;;;;;;5014871;28;20064;-80
2023/03/28 02:20:56;;;;;;;15.38;2.30;;;;;;;;;;5020469;28;20865;-80
2023/03/28 02:23:22;;;;;;;;;;;;;;;;;;5022101;28;20481;-80
2023/03/28 02:25:49;;;;;;;13.27;1.90;;;;;;;;;;5036438;28;20140;-80
2023/03/28 02:28:16;;;;;;;9.57;2.22;;;;;;;;;;5020882;28;20053;-80
2023/03/28 02:30:42;;;;;;;20.83;2.03;;;;;;;;;;5017955;28;20499;-80
2023/03/28 02:33:29;;;;;;;19.63;4.75;;;;;;;;;;5018307;28;20076;-80
2023/03/28 02:36:07;;;;;;;12.13;1.83;;;;;;;;;;5021771;28;20391;-80
2023/03/28 02:38:52;;;;;;;15.18;2.90;;;;;;;;;;5003079;28;20493;-80
2023/03/28 02:41:32;;;;;;;16.70;2.22;;;;;;;;;;5016841;28;20049;-80
2023/03/28 02:44:04;;;;;;;14.73;1.95;;;;;;;;;;5019944;28;20489;-79
2023/03/28 02:46:46;;;;;;;13.35;2.42;;;;;;;;;;5005792;28;20412;-80
2023/03/28 02:49:21;;;;;;;14.13;2.13;;;;;;;;;;5031440;28;20079;-80
2023/03/28 02:51:50;;;;;;;9.55;1.73;;;;;;;;;;4997606;28;20052;-81
2023/03/28 02:54:35;;;;;;;8.68;1.38;;;;;;;;;;5001893;28;20037;-80
2023/03/28 02:57:09;;;;;;;9.18;1.88;;;;;;;;;;5011885;28;20732;-80
2023/03/28 02:59:44;;;;;;;8.63;2.05;;;;;;;;;;5012411;28;20049;-80
2023/03/28 03:02:15;;;;;;;15.70;1.73;;;;;;;;;;5020232;28;20601;-79
2023/03/28 03:04:41;;;;;;;11.35;1.92;;;;;;;;;;5011023;28;20061;-80
2023/03/28 03:07:08;;;;;;;12.13;2.55;;;;;;;;;;5013616;28;20041;-80
2023/03/28 03:09:34;;;;;;;11.10;2.53;;;;;;;;;;5006718;28;20045;-80
2023/03/28 03:12:00;;;;;;;10.70;2.08;;;;;;;;;;4999998;28;20053;-79
2023/03/28 03:14:27;;;;;;;19.48;2.33;;;;;;;;;;5008949;28;20160;-80
2023/03/28 03:16:53;;;;;;;13.23;2.00;;;;;;;;;;5019904;28;20075;-80
2023/03/28 03:19:19;;;;;;;15.20;2.55;;;;;;;;;;5013938;28;20053;-80
2023/03/28 03:21:45;;;;;;;16.83;2.25;;;;;;;;;;5010790;28;20401;-80
2023/03/28 03:24:13;;;;;;;10.93;2.00;;;;;;;;;;5012989;28;20032;-80
2023/03/28 03:26:39;;;;;;;12.25;2.17;;;;;;;;;;5014859;28;20112;-80
2023/03/28 03:29:05;;;;;;;10.15;1.90;;;;;;;;;;4999684;28;20071;-80
2023/03/28 03:31:31;;;;;;;9.95;1.50;;;;;;;;;;5011268;28;20041;-80
2023/03/28 03:33:58;;;;;;;10.80;1.65;;;;;;;;;;5014757;28;20102;-80
2023/03/28 03:36:25;;;;;;;8.95;1.70;;;;;;;;;;5016052;28;20040;-79
2023/03/28 03:38:52;;;;;;;10.20;1.52;;;;;;;;;;5014196;28;20073;-80
2023/03/28 03:41:18;;;;;;;10.07;2.28;;;;;;;;;;4998168;28;20044;-80
2023/03/28 03:43:44;;;;;;;15.40;2.00;;;;;;;;;;5015418;28;20057;-80
2023/03/28 03:46:10;;;;;;;11.35;3.72;;;;;;;;;;5014775;28;20401;-80
2023/03/28 03:48:36;;;;;;;10.50;1.80;;;;;;;;;;5013661;28;20045;-80
2023/03/28 03:51:02;;;;;;;11.18;1.48;;;;;;;;;;5014022;28;20500;-80
2023/03/28 03:53:28;;;;;;;9.75;1.75;;;;;;;;;;4999456;28;20586;-80
2023/03/28 03:55:59;;;;;;;10.27;2.00;;;;;;;;;;5016604;28;20088;-79
2023/03/28 03:58:25;;;;;;;14.40;1.42;;;;;;;;;;5015596;28;20769;-80
2023/03/28 04:00:51;;;;;;;14.75;2.13;;;;;;;;;;5014149;28;20049;-80
2023/03/28 04:03:18;;;;;;;9.23;1.90;;;;;;;;;;5016246;28;20049;-80
2023/03/28 04:05:44;;;;;;;12.82;1.92;;;;;;;;;;5016061;28;20122;-80
2023/03/28 04:08:10;;;;;;;13.60;2.22;;;;;;;;;;5003008;28;20498;-80
2023/03/28 04:10:36;;;;;;;10.18;1.55;;;;;;;;;;5026208;28;20053;-80
2023/03/28 04:13:03;;;;;;;14.85;1.85;;;;;;;;;;5024945;28;20061;-80
2023/03/28 04:15:29;;;;;;;11.05;2.00;;;;;;;;;;5017960;28;20521;-79
2023/03/28 04:17:55;;;;;;;10.23;1.92;;;;;;;;;;5017595;28;20131;-78
2023/03/28 04:20:22;;;;;;;7.03;1.50;;;;;;;;;;5019285;28;21028;-78
2023/03/28 04:22:49;;;;;;;12.60;1.77;;;;;;;;;;5021435;28;20132;-79
2023/03/28 04:25:16;;;;;;;10.77;2.83;;;;;;;;;;5016669;28;20140;-79
2023/03/28 04:27:46;;;;;;;10.77;2.08;;;;;;;;;;5021352;28;20049;-79
2023/03/28 04:30:12;;;;;;;14.82;2.10;;;;;;;;;;5018649;28;20056;-79
2023/03/28 04:32:39;;;;;;;20.42;2.15;;;;;;;;;;5019824;28;20052;-78
2023/03/28 04:35:06;;;;;;;11.38;1.73;;;;;;;;;;5018537;28;20053;-79
2023/03/28 04:37:36;;;;;;;9.02;1.25;;;;;;;;;;5021442;28;20048;-79
2023/03/28 04:40:05;;;;;;;6.80;1.45;;;;;;;;;;5016090;28;20465;-80
2023/03/28 04:42:31;;;;;;;11.43;1.70;;;;;;;;;;5020581;28;20049;-79
2023/03/28 04:44:57;;;;;;;10.15;1.92;;;;;;;;;;5020846;28;20091;-79
2023/03/28 04:47:24;;;;;;;6.07;1.45;;;;;;;;;;5019756;28;20058;-79
2023/03/28 04:49:51;;;;;;;22.88;1.83;;;;;;;;;;5025996;28;20156;-79
2023/03/28 04:52:17;;;;;;;15.27;1.50;;;;;;;;;;4987447;28;20041;-79
2023/03/28 04:54:43;;;;;;;7.70;1.80;;;;;;;;;;5019061;28;20717;-79
2023/03/28 04:57:09;;;;;;;12.93;1.75;;;;;;;;;;5019396;28;20045;-79
2023/03/28 04:59:35;;;;;;;15.52;2.63;;;;;;;;;;5018145;28;20258;-79
2023/03/28 05:02:01;;;;;;;11.55;1.33;;;;;;;;;;5019971;28;20052;-79
2023/03/28 05:04:27;;;;;;;13.82;1.75;;;;;;;;;;5022683;28;20056;-79
2023/03/28 05:06:54;;;;;;;5.07;1.70;;;;;;;;;;5002256;28;20487;-79
2023/03/28 05:09:21;;;;;;;10.68;1.85;;;;;;;;;;5017508;28;20041;-80
2023/03/28 05:11:47;;;;;;;16.65;2.03;;;;;;;;;;5005780;28;20060;-80
2023/03/28 05:14:14;;;;;;;8.95;2.00;;;;;;;;;;5021263;28;20059;-79
2023/03/28 05:16:40;;;;;;;12.15;1.83;;;;;;;;;;5027940;28;20058;-79
2023/03/28 05:19:08;;;;;;;13.93;2.47;;;;;;;;;;5027659;28;20064;-79
2023/03/28 05:21:35;;;;;;;9.48;1.98;;;;;;;;;;5032870;28;20045;-80
2023/03/28 05:24:01;;;;;;;12.05;3.05;;;;;;;;;;5011708;28;20040;-78
2023/03/28 05:26:27;;;;;;;13.30;2.17;;;;;;;;;;5015146;28;20053;-78
2023/03/28 05:28:55;;;;;;;14.55;1.75;;;;;;;;;;5028529;28;20053;-78
2023/03/28 05:31:24;;;;;;;15.80;2.20;;;;;;;;;;5013814;28;20581;-79
2023/03/28 05:33:50;;;;;;;13.80;2.65;;;;;;;;;;5027456;28;20045;-79
2023/03/28 05:36:17;;;;;;;9.88;2.05;;;;;;;;;;5030691;28;20065;-78
2023/03/28 05:38:44;;;;;;;14.60;2.15;;;;;;;;;;5031425;28;20293;-79
2023/03/28 05:41:10;;;;;;;9.77;2.50;;;;;;;;;;5029428;28;20111;-78
2023/03/28 05:43:36;;;;;;;15.07;2.88;;;;;;;;;;5033084;28;20580;-79
2023/03/28 05:46:02;;;;;;;10.77;1.60;;;;;;;;;;5016966;28;20386;-78
2023/03/28 05:48:28;;;;;;;13.45;2.45;;;;;;;;;;5030472;28;20041;-79
2023/03/28 05:50:55;;;;;;;15.10;2.40;;;;;;;;;;5031804;28;21169;-79
2023/03/28 05:53:21;;;;;;;11.68;2.00;;;;;;;;;;5031330;28;20806;-78
2023/03/28 05:55:48;;;;;;;6.47;1.42;;;;;;;;;;5032447;28;20520;-79
2023/03/28 05:58:15;;;;;;;9.73;2.15;;;;;;;;;;5030481;28;20144;-78
2023/03/28 06:00:41;;;;;;;12.88;2.58;;;;;;;;;;5026828;28;20084;-80
2023/03/28 06:03:08;;;;;;;13.27;1.80;;;;;;;;;;5027138;28;20401;-79
2023/03/28 06:05:34;;;;;;;13.52;1.88;;;;;;;;;;5008943;28;20042;-79
2023/03/28 06:08:00;;;;;;;5.47;1.70;;;;;;;;;;5024843;28;20046;-79
2023/03/28 06:10:26;;;;;;;11.80;1.58;;;;;;;;;;5026293;28;20060;-81
2023/03/28 06:12:52;;;;;;;7.30;2.03;;;;;;;;;;5024884;28;20044;-81
2023/03/28 06:15:19;;;;;;;7.32;1.80;;;;;;;;;;4995110;28;20064;-81
2023/03/28 06:17:45;;;;;;;17.13;3.88;;;;;;;;;;5032181;28;20148;-81
2023/03/28 06:20:11;;;;;;;8.77;1.80;;;;;;;;;;5030197;28;20045;-81
2023/03/28 06:22:37;;;;;;;19.17;3.17;;;;;;;;;;5028428;28;20049;-81
2023/03/28 06:25:04;;;;;;;20.88;2.75;;;;;;;;;;5028324;28;20796;-81
2023/03/28 06:27:30;;;;;;;17.25;2.20;;;;;;;;;;5029560;28;20047;-80
2023/03/28 06:29:58;;;;;;;16.25;2.80;;;;;;;;;;4994148;28;20073;-81
2023/03/28 06:32:24;;;;;;;14.27;2.10;;;;;;;;;;5026888;28;20059;-80
2023/03/28 06:34:50;;;;;;;10.52;2.03;;;;;;;;;;5027707;28;20061;-80
2023/03/28 06:37:17;;;;;;;9.55;1.67;;;;;;;;;;5010225;28;20785;-80
2023/03/28 06:39:43;;;;;;;9.10;1.98;;;;;;;;;;5026339;28;20080;-80
2023/03/28 06:42:09;;;;;;;12.10;3.15;;;;;;;;;;5011760;28;20056;-80
2023/03/28 06:44:35;;;;;;;8.38;2.38;;;;;;;;;;5007722;28;20087;-80
2023/03/28 06:47:01;;;;;;;12.07;2.00;;;;;;;;;;5025608;28;20045;-80
2023/03/28 06:49:27;;;;;;;13.20;1.95;;;;;;;;;;5027256;28;20059;-80
2023/03/28 06:51:54;;;;;;;12.88;2.55;;;;;;;;;;5026804;28;20536;-80
2023/03/28 06:54:20;;;;;;;15.82;1.80;;;;;;;;;;5027759;28;20048;-77
2023/03/28 06:56:46;;;;;;;9.15;1.88;;;;;;;;;;5022619;28;20045;-77
2023/03/28 06:59:12;;;;;;;11.25;1.75;;;;;;;;;;5016960;28;20045;-77
2023/03/28 07:01:38;;;;;;;11.57;1.70;;;;;;;;;;5019314;28;20175;-77
2023/03/28 07:04:04;;;;;;;15.25;1.92;;;;;;;;;;5015271;28;20049;-76
2023/03/28 07:06:30;;;;;;;12.30;2.67;;;;;;;;;;5005807;28;20040;-76
2023/03/28 07:08:57;;;;;;;10.00;2.08;;;;;;;;;;5013324;28;20421;-76
2023/03/28 07:11:23;;;;;;;9.07;1.95;;;;;;;;;;5017219;28;21736;-77
2023/03/28 07:13:49;;;;;;;12.93;2.42;;;;;;;;;;5014977;28;20076;-76
2023/03/28 07:16:16;;;;;;;11.50;2.10;;;;;;;;;;5022180;28;21631;-78
2023/03/28 07:18:43;;;;;;;16.63;2.97;;;;;;;;;;5002370;28;20037;-77
2023/03/28 07:21:10;;;;;;;17.23;2.00;;;;;;;;;;5019480;28;20091;-77
2023/03/28 07:23:38;;;;;;;12.35;2.47;;;;;;;;;;5022533;28;20037;-78
2023/03/28 07:26:05;;;;;;;8.00;1.90;;;;;;;;;;5004603;28;20135;-77
2023/03/28 07:28:31;;;;;;;18.08;2.50;;;;;;;;;;5003410;28;20045;-77
2023/03/28 07:31:00;;;;;;;18.30;2.35;;;;;;;;;;5020314;28;20135;-76
2023/03/28 07:33:26;;;;;;;12.38;2.65;;;;;;;;;;5020348;28;20041;-77
2023/03/28 07:35:52;;;;;;;19.75;2.75;;;;;;;;;;5014504;28;20522;-77
2023/03/28 07:38:18;;;;;;;16.02;1.77;;;;;;;;;;4998692;28;22063;-78
2023/03/28 07:40:44;;;;;;;5.75;1.48;;;;;;;;;;5013623;28;20068;-76
2023/03/28 07:43:11;;;;;;;12.50;2.40;;;;;;;;;;5014926;28;20129;-77
2023/03/28 07:45:38;;;;;;;11.82;2.63;;;;;;;;;;5015939;28;20131;-77
2023/03/28 07:48:05;;;;;;;11.98;2.33;;;;;;;;;;5018653;28;20133;-77
2023/03/28 07:50:35;;;;;;;12.50;2.40;;;;;;;;;;5002145;28;20532;-77
2023/03/28 07:53:01;;;;;;;13.80;2.40;;;;;;;;;;4996952;28;20128;-76
2023/03/28 07:55:28;;;;;;;10.32;1.60;;;;;;;;;;5014386;28;20037;-76
2023/03/28 07:57:54;;;;;;;7.15;1.80;;;;;;;;;;5013612;28;20178;-77
2023/03/28 08:00:24;;;;;;;12.73;2.00;;;;;;;;;;5001451;28;20488;-76
2023/03/28 08:02:50;;;;;;;10.75;1.90;;;;;;;;;;5003626;28;20504;-77
2023/03/28 08:05:17;;;;;;;15.25;2.40;;;;;;;;;;5015743;28;20136;-77
2023/03/28 08:07:44;;;;;;;11.68;1.77;;;;;;;;;;5001460;28;20069;-78
2023/03/28 08:10:11;;;;;;;9.88;2.05;;;;;;;;;;5016894;28;20072;-78
2023/03/28 08:12:38;;;;;;;6.90;1.52;;;;;;;;;;5018937;28;20054;-77
2023/03/28 08:15:05;;;;;;;18.30;1.95;;;;;;;;;;5001981;28;20049;-78
2023/03/28 08:17:31;;;;;;;7.50;1.75;;;;;;;;;;5019491;28;20118;-78
2023/03/28 08:19:57;;;;;;;12.73;2.17;;;;;;;;;;5013124;28;20055;-77
2023/03/28 08:22:25;;;;;;;7.13;2.15;;;;;;;;;;5015734;28;20092;-80
2023/03/28 08:24:51;;;;;;;10.25;2.00;;;;;;;;;;5021129;28;20055;-80
2023/03/28 08:27:17;;;;;;;7.10;1.70;;;;;;;;;;5003687;28;20124;-76
2023/03/28 08:29:43;;;;;;;4.80;1.40;;;;;;;;;;5018034;28;20524;-77
2023/03/28 08:32:10;;;;;;;12.50;1.92;;;;;;;;;;4997335;28;20504;-73
2023/03/28 08:34:36;;;;;;;6.10;2.30;;;;;;;;;;5012885;28;20046;-73
2023/03/28 08:37:04;;;;;;;15.75;2.03;;;;;;;;;;5013492;28;20056;-73
2023/03/28 08:39:31;;;;;;;17.40;3.33;;;;;;;;;;5015101;28;20053;-73
2023/03/28 08:41:57;;;;;;;8.07;1.40;;;;;;;;;;5013169;28;20049;-74
2023/03/28 08:44:23;;;;;;;6.15;1.48;;;;;;;;;;5012255;28;20037;-73
2023/03/28 08:46:52;;;;;;;7.28;1.35;;;;;;;;;;5012940;28;20094;-73
2023/03/28 08:49:18;;;;;;;9.18;1.20;;;;;;;;;;5016607;28;20136;-71
2023/03/28 08:51:46;;;;;;;5.72;1.00;;;;;;;;;;5003681;28;20091;-72
2023/03/28 08:54:12;;;;;;;8.63;1.48;;;;;;;;;;5016252;28;20060;-72
2023/03/28 08:56:58;;;;;;;5.35;1.50;;;;;;;;;;5017159;28;20054;-77
2023/03/28 08:59:48;;;;;;;6.25;1.17;;;;;;;;;;5012419;28;20075;-77
2023/03/28 09:02:19;;;;;;;4.90;1.13;;;;;;;;;;5016738;28;20121;-79
2023/03/28 09:04:45;;;;;;;8.68;1.27;;;;;;;;;;5015106;28;20059;-80
2023/03/28 09:07:15;;;;;;;5.50;1.33;;;;;;;;;;5017984;28;20107;-80
2023/03/28 09:09:45;;;;;;;9.07;1.30;;;;;;;;;;5017671;28;20536;-82
2023/03/28 09:12:15;;;;;;;7.60;1.00;;;;;;;;;;5021148;28;20151;-82
2023/03/28 09:14:41;;;;;;;6.22;1.50;;;;;;;;;;5019553;28;20397;-81
2023/03/28 09:17:07;;;;;;;6.80;1.38;;;;;;;;;;5019083;28;20106;-79
2023/03/28 09:19:36;;;;;;;12.60;1.10;;;;;;;;;;5013700;28;20053;-79
2023/03/28 09:22:03;;;;;;;5.38;1.05;;;;;;;;;;5021280;28;20618;-77
2023/03/28 09:24:41;;;;;;;7.60;1.55;;;;;;;;;;5021779;28;20638;-78
2023/03/28 09:27:24;;;;;;;4.95;1.58;;;;;;;;;;5037857;28;21972;-81
2023/03/28 09:29:51;;;;;;;3.85;1.00;;;;;;;;;;5017761;28;20893;-77
2023/03/28 09:32:20;;;;;;;2.08;0.60;;;;;;;;;;5017601;28;20078;-78
2023/03/28 09:34:50;;;;;;;6.97;1.35;;;;;;;;;;4999544;28;20045;-77
2023/03/28 09:37:25;;;;;;;8.77;1.60;;;;;;;;;;5020650;28;20492;-77
2023/03/28 09:39:53;;;;;;;5.78;1.13;;;;;;;;;;5027481;28;20940;-79
2023/03/28 09:42:22;;;;;;;7.68;1.10;;;;;;;;;;5023382;28;20132;-79
2023/03/28 09:45:01;;;;;;;1.90;0.60;;;;;;;;;;5022666;28;20794;-80
2023/03/28 09:47:27;;;;;;;10.05;3.97;;;;;;;;;;5022398;28;20044;-79
2023/03/28 09:49:53;;;;;;;5.82;0.98;;;;;;;;;;5022281;28;20705;-80
2023/03/28 09:52:20;;;;;;;3.45;1.00;;;;;;;;;;5003147;28;20684;-78
2023/03/28 09:54:46;;;;;;;5.07;1.13;;;;;;;;;;5005169;28;20189;-79
2023/03/28 09:57:12;;;;;;;5.90;1.38;;;;;;;;;;5024018;28;20103;-81
2023/03/28 09:59:38;;;;;;;11.68;2.28;;;;;;;;;;5020994;28;21099;-80
2023/03/28 10:02:05;;;;;;;3.88;1.00;;;;;;;;;;4991867;28;20397;-80
2023/03/28 10:04:33;;;;;;;5.80;1.25;;;;;;;;;;5027622;28;20508;-81
2023/03/28 10:07:08;;;;;;;5.80;1.30;;;;;;;;;;5008895;28;20053;-81
2023/03/28 10:09:34;;;;;;;4.70;0.90;;;;;;;;;;5027996;28;20405;-80
2023/03/28 10:12:03;;;;;;;4.53;1.15;;;;;;;;;;5027021;28;20056;-81
2023/03/28 10:14:34;;;;;;;4.68;1.55;;;;;;;;;;5011713;28;20060;-79
2023/03/28 10:17:02;;;;;;;4.55;1.10;;;;;;;;;;5038593;28;20161;-78
2023/03/28 10:19:31;;;;;;;7.93;3.25;;;;;;;;;;5020546;28;20090;-79
2023/03/28 10:21:57;;;;;;;4.63;1.00;;;;;;;;;;5017189;28;20054;-76
2023/03/28 10:24:24;;;;;;;3.05;1.13;;;;;;;;;;5017142;28;20047;-76
2023/03/28 10:26:51;;;;;;;5.80;1.20;;;;;;;;;;5014691;28;20505;-76
2023/03/28 10:29:17;;;;;;;5.05;1.73;;;;;;;;;;5006527;28;20083;-79
2023/03/28 10:31:48;;;;;;;3.03;1.10;;;;;;;;;;5017277;28;20151;-78
2023/03/28 10:34:28;;;;;;;7.82;1.02;;;;;;;;;;5008913;28;20540;-80
2023/03/28 10:36:54;;;;;;;6.28;1.08;;;;;;;;;;5017846;28;20136;-80
2023/03/28 10:39:28;;;;;;;3.20;1.13;;;;;;;;;;5010898;28;20045;-79
2023/03/28 10:42:01;;;;;;;4.53;0.90;;;;;;;;;;5017472;28;20041;-78
2023/03/28 10:44:29;;;;;;;6.72;1.00;;;;;;;;;;5015239;28;20124;-79
2023/03/28 10:47:15;;;;;;;4.75;1.13;;;;;;;;;;5022569;28;20044;-80
2023/03/28 10:49:51;;;;;;;4.10;1.08;;;;;;;;;;5019068;28;20068;-80
2023/03/28 10:52:36;;;;;;;6.53;1.45;;;;;;;;;;5002634;28;20057;-80
2023/03/28 10:55:09;;;;;;;4.10;1.27;;;;;;;;;;5019916;28;20068;-79
2023/03/28 10:57:38;;;;;;;2.70;0.90;;;;;;;;;;5026526;28;20580;-80
2023/03/28 11:00:06;;;;;;;3.83;1.00;;;;;;;;;;5014233;28;20448;-76
2023/03/28 11:02:51;;;;;;;5.05;1.10;;;;;;;;;;5021020;28;20044;-77
2023/03/28 11:05:36;;;;;;;4.60;1.25;;;;;;;;;;5003849;28;20377;-77
2023/03/28 11:08:14;;;;;;;3.83;1.10;;;;;;;;;;5021618;28;20043;-76
2023/03/28 11:10:48;;;;;;;5.72;1.70;;;;;;;;;;5018654;28;20061;-76
2023/03/28 11:13:30;;;;;;;4.10;1.10;;;;;;;;;;5018220;28;20520;-76
2023/03/28 11:16:14;;;;;;;4.13;1.08;;;;;;;;;;5019738;28;20045;-76
2023/03/28 11:18:52;;;;;;;4.57;1.52;;;;;;;;;;5019511;28;20081;-75
2023/03/28 11:21:18;;;;;;;9.00;1.58;;;;;;;;;;5002212;28;20475;-76
2023/03/28 11:23:47;;;;;;;3.75;1.35;;;;;;;;;;5017594;28;20049;-76
2023/03/28 11:26:25;;;;;;;3.88;1.50;;;;;;;;;;5022369;28;20076;-76
2023/03/28 11:29:01;;;;;;;4.53;1.50;;;;;;;;;;5018799;28;20827;-76
2023/03/28 11:31:47;;;;;;;4.30;1.70;;;;;;;;;;5021196;28;20048;-76
2023/03/28 11:34:14;;;;;;;7.15;2.00;;;;;;;;;;5017262;28;20049;-76
2023/03/28 11:36:52;;;;;;;4.05;1.10;;;;;;;;;;5016593;28;20115;-79
2023/03/28 11:39:18;;;;;;;4.10;1.30;;;;;;;;;;5019602;28;20490;-78
2023/03/28 11:41:45;;;;;;;4.50;1.65;;;;;;;;;;5010691;28;20156;-78
2023/03/28 11:44:16;;;;;;;6.43;1.40;;;;;;;;;;5016016;28;20041;-79
2023/03/28 11:46:48;;;;;;;5.95;1.50;;;;;;;;;;5020091;28;20125;-78
2023/03/28 11:49:25;;;;;;;4.28;1.10;;;;;;;;;;5021156;28;20040;-77
2023/03/28 11:52:00;;;;;;;7.03;1.55;;;;;;;;;;5020890;28;20099;-77
2023/03/28 11:54:41;;;;;;;4.80;1.80;;;;;;;;;;5020362;28;20045;-76
2023/03/28 11:57:29;;;;;;;5.70;1.30;;;;;;;;;;5018301;28;20053;-77
2023/03/28 12:00:10;;;;;;;6.45;1.50;;;;;;;;;;5020356;28;20060;-77
2023/03/28 12:02:41;;;;;;;2.50;1.23;;;;;;;;;;5004295;28;20052;-76
2023/03/28 12:05:31;;;;;;;4.53;1.15;;;;;;;;;;5017204;28;20465;-76
2023/03/28 12:07:57;;;;;;;2.95;1.08;;;;;;;;;;5014610;28;20059;-77
2023/03/28 12:10:26;;;;;;;6.03;1.38;;;;;;;;;;4999089;28;20073;-77
2023/03/28 12:13:01;;;;;;;2.25;1.20;;;;;;;;;;5015671;28;20056;-77
2023/03/28 12:15:47;;;;;;;5.95;1.88;;;;;;;;;;5004700;28;20532;-77
2023/03/28 12:18:29;;;;;;;3.67;1.63;;;;;;;;;;5011848;28;20048;-77
2023/03/28 12:20:59;;;;;;;3.58;1.60;;;;;;;;;;5011599;28;20336;-77
2023/03/28 12:23:31;;;;;;;3.20;1.70;;;;;;;;;;5016441;28;20571;-74
2023/03/28 12:25:57;;;;;;;5.93;1.55;;;;;;;;;;5018869;28;20128;-75
2023/03/28 12:28:27;;;;;;;7.53;2.70;;;;;;;;;;5015068;28;20553;-75
2023/03/28 12:31:19;;;;;;;8.45;1.60;;;;;;;;;;5015323;28;20698;-75
2023/03/28 12:33:50;;;;;;;4.78;1.50;;;;;;;;;;4999121;28;20627;-75
2023/03/28 12:36:42;;;;;;;4.63;1.42;;;;;;;;;;5017107;28;20049;-75
2023/03/28 12:39:08;;;;;;;5.47;1.85;;;;;;;;;;5014253;28;20045;-75
2023/03/28 12:41:39;;;;;;;2.97;1.25;;;;;;;;;;5016071;28;20060;-75
2023/03/28 12:44:07;;;;;;;4.10;1.70;;;;;;;;;;5034047;28;20059;-75
2023/03/28 12:46:44;;;;;;;4.82;1.50;;;;;;;;;;5022241;28;20043;-75
2023/03/28 12:49:23;;;;;;;7.28;1.65;;;;;;;;;;5014398;28;20155;-76
2023/03/28 12:51:54;;;;;;;3.30;1.50;;;;;;;;;;5016488;28;20053;-76
2023/03/28 12:54:26;;;;;;;3.45;1.80;;;;;;;;;;5019745;28;20126;-76
2023/03/28 12:57:03;;;;;;;3.38;1.33;;;;;;;;;;5015115;28;20175;-76
2023/03/28 12:59:39;;;;;;;2.78;1.60;;;;;;;;;;5017746;28;20045;-76
2023/03/28 13:02:29;;;;;;;3.13;1.33;;;;;;;;;;4998179;28;20045;-76
2023/03/28 13:05:03;;;;;;;3.67;1.50;;;;;;;;;;4999359;28;20504;-76
2023/03/28 13:07:59;;;;;;;4.93;1.63;;;;;;;;;;5019117;28;20045;-76
2023/03/28 13:10:32;;;;;;;3.90;1.77;;;;;;;;;;5010423;28;21458;-76
2023/03/28 13:13:09;;;;;;;4.97;1.90;;;;;;;;;;5015009;28;20469;-76
2023/03/28 13:15:48;;;;;;;5.88;2.25;;;;;;;;;;5015488;28;20048;-75
2023/03/28 13:18:19;;;;;;;3.33;1.63;;;;;;;;;;5015844;28;20189;-76
2023/03/28 13:20:45;;;;;;;5.95;2.10;;;;;;;;;;5014286;28;20577;-76
2023/03/28 13:23:13;;;;;;;5.55;1.50;;;;;;;;;;5016108;28;20041;-76
2023/03/28 13:25:40;;;;;;;3.80;1.50;;;;;;;;;;5016245;28;20130;-75
2023/03/28 13:28:10;;;;;;;4.63;1.98;;;;;;;;;;4997284;28;20492;-75
2023/03/28 13:30:36;;;;;;;5.07;1.90;;;;;;;;;;5017143;28;20713;-74
2023/03/28 13:33:07;;;;;;;4.07;1.80;;;;;;;;;;5017546;28;20041;-74
2023/03/28 13:35:47;;;;;;;2.67;1.50;;;;;;;;;;5017338;28;20676;-74
2023/03/28 13:38:28;;;;;;;5.75;1.90;;;;;;;;;;5000377;28;20049;-75
2023/03/28 13:40:58;;;;;;;4.10;1.60;;;;;;;;;;4999548;28;20060;-75
2023/03/28 13:43:33;;;;;;;5.63;1.75;;;;;;;;;;5016481;28;20041;-74
2023/03/28 13:46:01;;;;;;;7.15;1.88;;;;;;;;;;5016359;28;20049;-74
2023/03/28 13:48:32;;;;;;;4.68;1.80;;;;;;;;;;5016023;28;20431;-74
2023/03/28 13:50:59;;;;;;;4.70;1.85;;;;;;;;;;5016864;28;20478;-75
2023/03/28 13:53:25;;;;;;;7.07;2.35;;;;;;;;;;5017864;28;20128;-74
2023/03/28 13:56:27;;;;;;;4.63;2.08;;;;;;;;;;5017292;28;20099;-75
2023/03/28 13:58:55;;;;;;;7.22;2.10;;;;;;;;;;4997294;28;20084;-75
2023/03/28 14:01:26;;;;;;;7.47;2.03;;;;;;;;;;5007919;28;21826;-74
2023/03/28 14:03:53;;;;;;;5.32;1.83;;;;;;;;;;5013627;28;20048;-74
2023/03/28 14:06:26;;;;;;;3.10;1.60;;;;;;;;;;5015884;28;20045;-74
2023/03/28 14:08:54;;;;;;;8.10;2.43;;;;;;;;;;4994232;28;20033;-74
2023/03/28 14:11:22;;;;;;;4.88;1.70;;;;;;;;;;4995661;28;20063;-75
2023/03/28 14:13:50;;;;;;;5.75;2.22;;;;;;;;;;4997114;28;20080;-74
2023/03/28 14:16:16;;;;;;;3.40;1.67;;;;;;;;;;5007218;28;20041;-74
2023/03/28 14:18:44;;;;;;;5.32;2.20;;;;;;;;;;4995412;28;20581;-75
2023/03/28 14:21:11;;;;;;;2.35;1.80;;;;;;;;;;4996209;28;20694;-74
2023/03/28 14:23:38;;;;;;;7.22;1.90;;;;;;;;;;4994359;28;20061;-74
2023/03/28 14:26:06;;;;;;;4.97;2.08;;;;;;;;;;4993537;28;20046;-74
2023/03/28 14:28:32;;;;;;;6.00;2.13;;;;;;;;;;5013203;28;20054;-74
2023/03/28 14:30:58;;;;;;;6.47;2.03;;;;;;;;;;5014571;28;20783;-74
2023/03/28 14:33:30;;;;;;;6.22;2.15;;;;;;;;;;5012457;28;20382;-74
2023/03/28 14:35:58;;;;;;;7.75;1.85;;;;;;;;;;5006351;28;20045;-74
2023/03/28 14:38:29;;;;;;;4.53;1.58;;;;;;;;;;5013860;28;20132;-74
2023/03/28 14:41:04;;;;;;;5.50;1.88;;;;;;;;;;5012349;28;20072;-74
2023/03/28 14:43:30;;;;;;;4.75;2.25;;;;;;;;;;5014941;28;20080;-74
2023/03/28 14:46:01;;;;;;;5.22;1.90;;;;;;;;;;5010578;28;20053;-74
2023/03/28 14:48:28;;;;;;;7.82;2.00;;;;;;;;;;5011304;28;20050;-74
2023/03/28 14:50:55;;;;;;;9.07;2.35;;;;;;;;;;5012191;28;20045;-74
2023/03/28 14:53:26;;;;;;;3.63;1.88;;;;;;;;;;5012938;28;20049;-74